sensor_id;sensor_type;location;lat;lon;timestamp;temperature;humidity
11772;DHT22;12556;55.748;13.194;2023-02-02T00:01:40;4.10;99.90
11772;DHT22;12556;55.748;13.194;2023-02-02T00:04:08;4.00;99.90
11772;DHT22;12556;55.748;13.194;2023-02-02T00:06:40;4.00;99.90
11772;DHT22;12556;55.748;13.194;2023-02-02T00:09:08;4.00;99.90
11772;DHT22;12556;55.748;13.194;2023-02-02T00:11:36;4.00;99.90
11772;DHT22;12556;55.748;13.194;2023-02-02T00:14:03;3.90;99.90
11772;DHT22;12556;55.748;13.194;2023-02-02T00:16:40;3.90;99.90
11772;DHT22;12556;55.748;13.194;2023-02-02T00:19:10;3.80;99.90
11772;DHT22;12556;55.748;13.194;2023-02-02T00:21:37;3.80;99.90
11772;DHT22;12556;55.748;13.194;2023-02-02T00:24:07;3.80;99.90
11772;DHT22;12556;55.748;13.194;2023-02-02T00:26:35;3.80;99.90
11772;DHT22;12556;55.748;13.194;2023-02-02T00:29:03;3.80;99.90
11772;DHT22;12556;55.748;13.194;2023-02-02T00:31:30;3.70;99.90
11772;DHT22;12556;55.748;13.194;2023-02-02T00:33:58;3.70;99.90
11772;DHT22;12556;55.748;13.194;2023-02-02T00:36:25;3.70;99.90
11772;DHT22;12556;55.748;13.194;2023-02-02T00:38:52;3.70;99.90
11772;DHT22;12556;55.748;13.194;2023-02-02T00:41:19;3.70;99.90
11772;DHT22;12556;55.748;13.194;2023-02-02T00:43:46;3.70;99.90
11772;DHT22;12556;55.748;13.194;2023-02-02T00:46:34;3.60;99.90
11772;DHT22;12556;55.748;13.194;2023-02-02T00:49:04;3.60;99.90
11772;DHT22;12556;55.748;13.194;2023-02-02T00:51:31;3.60;99.90
11772;DHT22;12556;55.748;13.194;2023-02-02T00:53:58;3.70;99.90
11772;DHT22;12556;55.748;13.194;2023-02-02T00:56:25;3.70;99.90
11772;DHT22;12556;55.748;13.194;2023-02-02T00:58:52;3.60;99.90
11772;DHT22;12556;55.748;13.194;2023-02-02T01:01:19;3.70;99.90
11772;DHT22;12556;55.748;13.194;2023-02-02T01:03:47;3.70;99.90
11772;DHT22;12556;55.748;13.194;2023-02-02T01:06:16;3.60;99.90
11772;DHT22;12556;55.748;13.194;2023-02-02T01:08:43;3.60;99.90
11772;DHT22;12556;55.748;13.194;2023-02-02T01:11:10;3.60;99.90
11772;DHT22;12556;55.748;13.194;2023-02-02T01:13:37;3.60;99.90
11772;DHT22;12556;55.748;13.194;2023-02-02T01:16:04;3.60;99.90
11772;DHT22;12556;55.748;13.194;2023-02-02T01:18:32;3.60;99.90
11772;DHT22;12556;55.748;13.194;2023-02-02T01:20:59;3.60;99.90
11772;DHT22;12556;55.748;13.194;2023-02-02T01:23:28;3.60;99.90
11772;DHT22;12556;55.748;13.194;2023-02-02T01:25:56;3.60;99.90
11772;DHT22;12556;55.748;13.194;2023-02-02T01:28:24;3.50;99.90
11772;DHT22;12556;55.748;13.194;2023-02-02T01:30:51;3.60;99.90
11772;DHT22;12556;55.748;13.194;2023-02-02T01:33:21;3.50;99.90
11772;DHT22;12556;55.748;13.194;2023-02-02T01:35:50;3.50;99.90
11772;DHT22;12556;55.748;13.194;2023-02-02T01:38:18;3.40;99.90
11772;DHT22;12556;55.748;13.194;2023-02-02T01:40:48;3.40;99.90
11772;DHT22;12556;55.748;13.194;2023-02-02T01:43:22;3.40;99.90
11772;DHT22;12556;55.748;13.194;2023-02-02T01:45:49;3.40;99.90
11772;DHT22;12556;55.748;13.194;2023-02-02T01:48:17;3.40;99.90
11772;DHT22;12556;55.748;13.194;2023-02-02T01:50:47;3.40;99.90
11772;DHT22;12556;55.748;13.194;2023-02-02T01:53:16;3.40;99.90
11772;DHT22;12556;55.748;13.194;2023-02-02T01:55:47;3.40;99.90
11772;DHT22;12556;55.748;13.194;2023-02-02T01:58:18;3.40;99.90
11772;DHT22;12556;55.748;13.194;2023-02-02T02:00:46;3.40;99.90
11772;DHT22;12556;55.748;13.194;2023-02-02T02:03:15;3.40;99.90
11772;DHT22;12556;55.748;13.194;2023-02-02T02:05:52;3.40;99.90
11772;DHT22;12556;55.748;13.194;2023-02-02T02:08:22;3.40;99.90
11772;DHT22;12556;55.748;13.194;2023-02-02T02:10:52;3.40;99.90
11772;DHT22;12556;55.748;13.194;2023-02-02T02:13:20;3.40;99.90
11772;DHT22;12556;55.748;13.194;2023-02-02T02:16:23;3.40;99.90
11772;DHT22;12556;55.748;13.194;2023-02-02T02:19:00;3.30;99.90
11772;DHT22;12556;55.748;13.194;2023-02-02T02:21:51;3.30;99.90
11772;DHT22;12556;55.748;13.194;2023-02-02T02:25:16;3.30;99.90
11772;DHT22;12556;55.748;13.194;2023-02-02T02:28:25;3.30;99.90
11772;DHT22;12556;55.748;13.194;2023-02-02T02:31:19;3.20;99.90
11772;DHT22;12556;55.748;13.194;2023-02-02T02:33:55;3.20;99.90
11772;DHT22;12556;55.748;13.194;2023-02-02T02:36:28;3.10;99.90
11772;DHT22;12556;55.748;13.194;2023-02-02T02:39:05;3.10;99.90
11772;DHT22;12556;55.748;13.194;2023-02-02T02:41:40;3.10;99.90
11772;DHT22;12556;55.748;13.194;2023-02-02T02:44:11;3.10;99.90
11772;DHT22;12556;55.748;13.194;2023-02-02T02:46:40;3.00;99.90
11772;DHT22;12556;55.748;13.194;2023-02-02T02:49:11;3.00;99.90
11772;DHT22;12556;55.748;13.194;2023-02-02T02:51:44;3.00;99.90
11772;DHT22;12556;55.748;13.194;2023-02-02T02:54:13;2.90;99.90
11772;DHT22;12556;55.748;13.194;2023-02-02T02:56:56;2.80;99.90
11772;DHT22;12556;55.748;13.194;2023-02-02T02:59:34;2.80;99.90
11772;DHT22;12556;55.748;13.194;2023-02-02T03:02:13;2.80;99.90
11772;DHT22;12556;55.748;13.194;2023-02-02T03:04:54;2.70;99.90
11772;DHT22;12556;55.748;13.194;2023-02-02T03:07:28;2.70;99.90
11772;DHT22;12556;55.748;13.194;2023-02-02T03:09:59;2.70;99.90
11772;DHT22;12556;55.748;13.194;2023-02-02T03:12:28;2.60;99.90
11772;DHT22;12556;55.748;13.194;2023-02-02T03:14:54;2.60;99.90
11772;DHT22;12556;55.748;13.194;2023-02-02T03:17:21;2.70;99.90
11772;DHT22;12556;55.748;13.194;2023-02-02T03:19:49;2.60;99.90
11772;DHT22;12556;55.748;13.194;2023-02-02T03:22:16;2.60;99.90
11772;DHT22;12556;55.748;13.194;2023-02-02T03:24:43;2.60;99.90
11772;DHT22;12556;55.748;13.194;2023-02-02T03:27:10;2.50;99.90
11772;DHT22;12556;55.748;13.194;2023-02-02T03:29:37;2.60;99.90
11772;DHT22;12556;55.748;13.194;2023-02-02T03:32:04;2.50;99.90
11772;DHT22;12556;55.748;13.194;2023-02-02T03:34:31;2.50;99.90
11772;DHT22;12556;55.748;13.194;2023-02-02T03:36:59;2.40;99.90
11772;DHT22;12556;55.748;13.194;2023-02-02T03:39:26;2.40;99.90
11772;DHT22;12556;55.748;13.194;2023-02-02T03:41:53;2.40;99.90
11772;DHT22;12556;55.748;13.194;2023-02-02T03:44:20;2.30;99.90
11772;DHT22;12556;55.748;13.194;2023-02-02T03:46:47;2.30;99.90
11772;DHT22;12556;55.748;13.194;2023-02-02T03:49:14;2.20;99.90
11772;DHT22;12556;55.748;13.194;2023-02-02T03:51:40;2.20;99.90
11772;DHT22;12556;55.748;13.194;2023-02-02T03:54:10;2.20;99.90
11772;DHT22;12556;55.748;13.194;2023-02-02T03:56:37;2.20;99.90
11772;DHT22;12556;55.748;13.194;2023-02-02T03:59:04;2.10;99.90
11772;DHT22;12556;55.748;13.194;2023-02-02T04:01:31;2.10;99.90
11772;DHT22;12556;55.748;13.194;2023-02-02T04:03:58;2.10;99.90
11772;DHT22;12556;55.748;13.194;2023-02-02T04:06:25;2.10;99.90
11772;DHT22;12556;55.748;13.194;2023-02-02T04:08:52;2.10;99.90
11772;DHT22;12556;55.748;13.194;2023-02-02T04:11:20;2.10;99.90
11772;DHT22;12556;55.748;13.194;2023-02-02T04:13:47;2.00;99.90
11772;DHT22;12556;55.748;13.194;2023-02-02T04:16:14;2.10;99.90
11772;DHT22;12556;55.748;13.194;2023-02-02T04:18:41;2.10;99.90
11772;DHT22;12556;55.748;13.194;2023-02-02T04:21:08;2.10;99.90
11772;DHT22;12556;55.748;13.194;2023-02-02T04:23:35;2.10;99.90
11772;DHT22;12556;55.748;13.194;2023-02-02T04:26:02;2.10;99.90
11772;DHT22;12556;55.748;13.194;2023-02-02T04:28:31;2.10;99.90
11772;DHT22;12556;55.748;13.194;2023-02-02T04:30:58;2.10;99.90
11772;DHT22;12556;55.748;13.194;2023-02-02T04:33:26;2.10;99.90
11772;DHT22;12556;55.748;13.194;2023-02-02T04:35:53;2.10;99.90
11772;DHT22;12556;55.748;13.194;2023-02-02T04:38:20;2.00;99.90
11772;DHT22;12556;55.748;13.194;2023-02-02T04:40:48;2.00;99.90
11772;DHT22;12556;55.748;13.194;2023-02-02T04:43:15;2.00;99.90
11772;DHT22;12556;55.748;13.194;2023-02-02T04:45:45;2.00;99.90
11772;DHT22;12556;55.748;13.194;2023-02-02T04:48:11;2.00;99.90
11772;DHT22;12556;55.748;13.194;2023-02-02T04:50:38;2.00;99.90
11772;DHT22;12556;55.748;13.194;2023-02-02T04:53:05;1.90;99.90
11772;DHT22;12556;55.748;13.194;2023-02-02T04:55:35;1.90;99.90
11772;DHT22;12556;55.748;13.194;2023-02-02T04:58:03;1.90;99.90
11772;DHT22;12556;55.748;13.194;2023-02-02T05:00:30;1.90;99.90
11772;DHT22;12556;55.748;13.194;2023-02-02T05:02:59;1.90;99.90
11772;DHT22;12556;55.748;13.194;2023-02-02T05:05:26;1.90;99.90
11772;DHT22;12556;55.748;13.194;2023-02-02T05:07:53;1.90;99.90
11772;DHT22;12556;55.748;13.194;2023-02-02T05:10:20;1.90;99.90
11772;DHT22;12556;55.748;13.194;2023-02-02T05:12:47;1.90;99.90
11772;DHT22;12556;55.748;13.194;2023-02-02T05:15:14;1.90;99.90
11772;DHT22;12556;55.748;13.194;2023-02-02T05:17:40;1.90;99.90
11772;DHT22;12556;55.748;13.194;2023-02-02T05:20:10;1.90;99.90
11772;DHT22;12556;55.748;13.194;2023-02-02T05:22:37;1.90;99.90
11772;DHT22;12556;55.748;13.194;2023-02-02T05:25:05;1.90;99.90
11772;DHT22;12556;55.748;13.194;2023-02-02T05:27:33;1.90;99.90
11772;DHT22;12556;55.748;13.194;2023-02-02T05:30:00;1.90;99.90
11772;DHT22;12556;55.748;13.194;2023-02-02T05:32:27;1.90;99.90
11772;DHT22;12556;55.748;13.194;2023-02-02T05:34:54;1.90;99.90
11772;DHT22;12556;55.748;13.194;2023-02-02T05:37:22;1.90;99.90
11772;DHT22;12556;55.748;13.194;2023-02-02T05:39:49;1.90;99.90
11772;DHT22;12556;55.748;13.194;2023-02-02T05:42:18;1.90;99.90
11772;DHT22;12556;55.748;13.194;2023-02-02T05:44:45;1.90;99.90
11772;DHT22;12556;55.748;13.194;2023-02-02T05:47:11;1.90;99.90
11772;DHT22;12556;55.748;13.194;2023-02-02T05:49:38;1.90;99.90
11772;DHT22;12556;55.748;13.194;2023-02-02T05:52:06;1.90;99.90
11772;DHT22;12556;55.748;13.194;2023-02-02T05:54:35;1.90;99.90
11772;DHT22;12556;55.748;13.194;2023-02-02T05:57:01;1.90;99.90
11772;DHT22;12556;55.748;13.194;2023-02-02T05:59:28;1.90;99.90
11772;DHT22;12556;55.748;13.194;2023-02-02T06:01:55;1.90;99.90
11772;DHT22;12556;55.748;13.194;2023-02-02T06:04:22;1.90;99.90
11772;DHT22;12556;55.748;13.194;2023-02-02T06:06:49;1.80;99.90
11772;DHT22;12556;55.748;13.194;2023-02-02T06:09:16;1.80;99.90
11772;DHT22;12556;55.748;13.194;2023-02-02T06:11:45;1.80;99.90
11772;DHT22;12556;55.748;13.194;2023-02-02T06:14:12;1.80;99.90
11772;DHT22;12556;55.748;13.194;2023-02-02T06:16:39;1.80;99.90
11772;DHT22;12556;55.748;13.194;2023-02-02T06:19:06;1.80;99.90
11772;DHT22;12556;55.748;13.194;2023-02-02T06:21:33;1.80;99.90
11772;DHT22;12556;55.748;13.194;2023-02-02T06:24:00;1.80;99.90
11772;DHT22;12556;55.748;13.194;2023-02-02T06:26:27;1.80;99.90
11772;DHT22;12556;55.748;13.194;2023-02-02T06:28:55;1.80;99.90
11772;DHT22;12556;55.748;13.194;2023-02-02T06:31:22;1.80;99.90
11772;DHT22;12556;55.748;13.194;2023-02-02T06:33:53;1.80;99.90
11772;DHT22;12556;55.748;13.194;2023-02-02T06:36:20;1.70;99.90
11772;DHT22;12556;55.748;13.194;2023-02-02T06:38:48;1.80;99.90
11772;DHT22;12556;55.748;13.194;2023-02-02T06:41:15;1.70;99.90
11772;DHT22;12556;55.748;13.194;2023-02-02T06:43:42;1.70;99.90
11772;DHT22;12556;55.748;13.194;2023-02-02T06:46:10;1.70;99.90
11772;DHT22;12556;55.748;13.194;2023-02-02T06:48:37;1.60;99.90
11772;DHT22;12556;55.748;13.194;2023-02-02T06:51:05;1.50;99.90
11772;DHT22;12556;55.748;13.194;2023-02-02T06:53:33;1.50;99.90
11772;DHT22;12556;55.748;13.194;2023-02-02T06:56:01;1.40;99.90
11772;DHT22;12556;55.748;13.194;2023-02-02T06:58:30;1.40;99.90
11772;DHT22;12556;55.748;13.194;2023-02-02T07:01:00;1.30;99.90
11772;DHT22;12556;55.748;13.194;2023-02-02T07:03:31;1.30;99.90
11772;DHT22;12556;55.748;13.194;2023-02-02T07:05:58;1.30;99.90
11772;DHT22;12556;55.748;13.194;2023-02-02T07:08:25;1.20;99.90
11772;DHT22;12556;55.748;13.194;2023-02-02T07:10:52;1.20;99.90
11772;DHT22;12556;55.748;13.194;2023-02-02T07:13:19;1.20;99.90
11772;DHT22;12556;55.748;13.194;2023-02-02T07:15:46;1.20;99.90
11772;DHT22;12556;55.748;13.194;2023-02-02T07:18:14;1.20;99.90
11772;DHT22;12556;55.748;13.194;2023-02-02T07:20:42;1.20;99.90
11772;DHT22;12556;55.748;13.194;2023-02-02T07:23:09;1.20;99.90
11772;DHT22;12556;55.748;13.194;2023-02-02T07:25:36;1.20;99.90
11772;DHT22;12556;55.748;13.194;2023-02-02T07:28:03;1.20;99.90
11772;DHT22;12556;55.748;13.194;2023-02-02T07:30:30;2.30;99.90
11772;DHT22;12556;55.748;13.194;2023-02-02T07:32:57;1.10;99.90
11772;DHT22;12556;55.748;13.194;2023-02-02T07:35:25;1.10;99.90
11772;DHT22;12556;55.748;13.194;2023-02-02T07:37:54;1.00;99.90
11772;DHT22;12556;55.748;13.194;2023-02-02T07:40:21;1.00;99.90
11772;DHT22;12556;55.748;13.194;2023-02-02T07:42:48;1.00;99.90
11772;DHT22;12556;55.748;13.194;2023-02-02T07:45:15;1.00;99.90
11772;DHT22;12556;55.748;13.194;2023-02-02T07:47:42;1.00;99.90
11772;DHT22;12556;55.748;13.194;2023-02-02T07:50:10;1.00;99.90
11772;DHT22;12556;55.748;13.194;2023-02-02T07:52:36;1.00;99.90
11772;DHT22;12556;55.748;13.194;2023-02-02T07:55:06;1.00;99.90
11772;DHT22;12556;55.748;13.194;2023-02-02T07:57:35;1.00;99.90
11772;DHT22;12556;55.748;13.194;2023-02-02T08:00:02;0.90;99.90
11772;DHT22;12556;55.748;13.194;2023-02-02T08:02:29;0.90;99.90
11772;DHT22;12556;55.748;13.194;2023-02-02T08:04:56;0.90;99.90
11772;DHT22;12556;55.748;13.194;2023-02-02T08:07:23;1.00;99.90
11772;DHT22;12556;55.748;13.194;2023-02-02T08:09:50;1.00;99.90
11772;DHT22;12556;55.748;13.194;2023-02-02T08:12:19;1.00;99.90
11772;DHT22;12556;55.748;13.194;2023-02-02T08:14:48;0.70;99.90
11772;DHT22;12556;55.748;13.194;2023-02-02T08:17:14;1.10;99.90
11772;DHT22;12556;55.748;13.194;2023-02-02T08:19:41;1.10;99.90
11772;DHT22;12556;55.748;13.194;2023-02-02T08:22:08;1.10;99.90
11772;DHT22;12556;55.748;13.194;2023-02-02T08:24:35;1.10;99.90
11772;DHT22;12556;55.748;13.194;2023-02-02T08:27:05;1.10;99.90
11772;DHT22;12556;55.748;13.194;2023-02-02T08:29:35;1.10;99.90
11772;DHT22;12556;55.748;13.194;2023-02-02T08:32:02;1.10;99.90
11772;DHT22;12556;55.748;13.194;2023-02-02T08:34:30;1.10;99.90
11772;DHT22;12556;55.748;13.194;2023-02-02T08:36:59;1.20;99.90
11772;DHT22;12556;55.748;13.194;2023-02-02T08:39:26;1.20;99.90
11772;DHT22;12556;55.748;13.194;2023-02-02T08:41:53;1.20;99.90
11772;DHT22;12556;55.748;13.194;2023-02-02T08:44:20;1.20;99.90
11772;DHT22;12556;55.748;13.194;2023-02-02T08:46:48;1.20;99.90
11772;DHT22;12556;55.748;13.194;2023-02-02T08:49:16;1.20;99.90
11772;DHT22;12556;55.748;13.194;2023-02-02T08:51:42;1.20;99.90
11772;DHT22;12556;55.748;13.194;2023-02-02T08:54:09;1.20;99.90
11772;DHT22;12556;55.748;13.194;2023-02-02T08:56:36;1.30;99.90
11772;DHT22;12556;55.748;13.194;2023-02-02T08:59:05;1.30;99.90
11772;DHT22;12556;55.748;13.194;2023-02-02T09:01:32;1.30;99.90
11772;DHT22;12556;55.748;13.194;2023-02-02T09:04:03;1.30;99.90
11772;DHT22;12556;55.748;13.194;2023-02-02T09:06:31;1.30;99.90
11772;DHT22;12556;55.748;13.194;2023-02-02T09:08:58;1.30;99.90
11772;DHT22;12556;55.748;13.194;2023-02-02T09:11:26;1.30;99.90
11772;DHT22;12556;55.748;13.194;2023-02-02T09:13:55;1.30;99.90
11772;DHT22;12556;55.748;13.194;2023-02-02T09:16:23;1.10;99.90
11772;DHT22;12556;55.748;13.194;2023-02-02T09:18:50;1.30;99.90
11772;DHT22;12556;55.748;13.194;2023-02-02T09:21:19;1.30;99.90
11772;DHT22;12556;55.748;13.194;2023-02-02T09:23:47;1.40;99.90
11772;DHT22;12556;55.748;13.194;2023-02-02T09:26:16;1.30;99.90
11772;DHT22;12556;55.748;13.194;2023-02-02T09:28:45;1.30;99.90
11772;DHT22;12556;55.748;13.194;2023-02-02T09:31:12;1.30;99.90
11772;DHT22;12556;55.748;13.194;2023-02-02T09:33:41;1.30;99.90
11772;DHT22;12556;55.748;13.194;2023-02-02T09:36:09;1.40;99.90
11772;DHT22;12556;55.748;13.194;2023-02-02T09:38:38;1.40;99.90
11772;DHT22;12556;55.748;13.194;2023-02-02T09:41:22;1.40;99.90
11772;DHT22;12556;55.748;13.194;2023-02-02T09:43:53;1.50;99.90
11772;DHT22;12556;55.748;13.194;2023-02-02T09:46:27;1.50;99.90
11772;DHT22;12556;55.748;13.194;2023-02-02T09:49:06;1.50;99.90
11772;DHT22;12556;55.748;13.194;2023-02-02T09:51:38;1.60;99.90
11772;DHT22;12556;55.748;13.194;2023-02-02T09:54:11;1.60;99.90
11772;DHT22;12556;55.748;13.194;2023-02-02T09:56:42;1.70;99.90
11772;DHT22;12556;55.748;13.194;2023-02-02T09:59:16;1.70;99.90
11772;DHT22;12556;55.748;13.194;2023-02-02T10:01:46;1.80;99.90
11772;DHT22;12556;55.748;13.194;2023-02-02T10:04:15;1.80;99.90
11772;DHT22;12556;55.748;13.194;2023-02-02T10:06:45;1.90;99.90
11772;DHT22;12556;55.748;13.194;2023-02-02T10:09:29;2.00;99.90
11772;DHT22;12556;55.748;13.194;2023-02-02T10:12:00;2.10;99.90
11772;DHT22;12556;55.748;13.194;2023-02-02T10:14:32;2.20;99.90
11772;DHT22;12556;55.748;13.194;2023-02-02T10:17:23;2.20;99.90
11772;DHT22;12556;55.748;13.194;2023-02-02T10:19:54;2.30;99.90
11772;DHT22;12556;55.748;13.194;2023-02-02T10:22:26;2.40;99.90
11772;DHT22;12556;55.748;13.194;2023-02-02T10:24:57;2.50;99.90
11772;DHT22;12556;55.748;13.194;2023-02-02T10:27:28;2.60;99.90
11772;DHT22;12556;55.748;13.194;2023-02-02T10:29:59;2.70;99.90
11772;DHT22;12556;55.748;13.194;2023-02-02T10:32:31;2.90;99.90
11772;DHT22;12556;55.748;13.194;2023-02-02T10:35:11;3.00;99.90
11772;DHT22;12556;55.748;13.194;2023-02-02T10:37:48;3.20;99.90
11772;DHT22;12556;55.748;13.194;2023-02-02T10:40:32;3.30;99.90
11772;DHT22;12556;55.748;13.194;2023-02-02T10:43:21;3.40;99.90
11772;DHT22;12556;55.748;13.194;2023-02-02T10:46:14;3.40;99.90
11772;DHT22;12556;55.748;13.194;2023-02-02T10:48:45;3.60;99.90
11772;DHT22;12556;55.748;13.194;2023-02-02T10:51:19;3.80;99.90
11772;DHT22;12556;55.748;13.194;2023-02-02T10:53:50;3.90;99.90
11772;DHT22;12556;55.748;13.194;2023-02-02T10:56:21;3.90;99.90
11772;DHT22;12556;55.748;13.194;2023-02-02T10:58:56;4.00;99.90
11772;DHT22;12556;55.748;13.194;2023-02-02T11:01:23;4.20;99.90
11772;DHT22;12556;55.748;13.194;2023-02-02T11:03:53;4.20;99.90
11772;DHT22;12556;55.748;13.194;2023-02-02T11:06:34;4.30;99.90
11772;DHT22;12556;55.748;13.194;2023-02-02T11:09:19;4.30;99.90
11772;DHT22;12556;55.748;13.194;2023-02-02T11:11:51;4.30;99.90
11772;DHT22;12556;55.748;13.194;2023-02-02T11:14:28;4.40;99.90
11772;DHT22;12556;55.748;13.194;2023-02-02T11:17:00;4.60;99.90
11772;DHT22;12556;55.748;13.194;2023-02-02T11:19:29;4.70;99.90
11772;DHT22;12556;55.748;13.194;2023-02-02T11:21:58;4.80;99.90
11772;DHT22;12556;55.748;13.194;2023-02-02T11:24:27;4.90;99.90
11772;DHT22;12556;55.748;13.194;2023-02-02T11:26:59;5.00;99.90
11772;DHT22;12556;55.748;13.194;2023-02-02T11:29:30;5.00;99.90
11772;DHT22;12556;55.748;13.194;2023-02-02T11:31:58;5.10;99.90
11772;DHT22;12556;55.748;13.194;2023-02-02T11:34:43;5.20;99.90
11772;DHT22;12556;55.748;13.194;2023-02-02T11:37:14;5.20;99.90
11772;DHT22;12556;55.748;13.194;2023-02-02T11:39:41;5.30;99.90
11772;DHT22;12556;55.748;13.194;2023-02-02T11:42:15;5.30;99.90
11772;DHT22;12556;55.748;13.194;2023-02-02T11:44:47;5.40;99.90
11772;DHT22;12556;55.748;13.194;2023-02-02T11:47:19;5.40;99.90
11772;DHT22;12556;55.748;13.194;2023-02-02T11:49:47;5.40;99.90
11772;DHT22;12556;55.748;13.194;2023-02-02T11:52:18;5.50;99.90
11772;DHT22;12556;55.748;13.194;2023-02-02T11:54:48;5.70;99.90
11772;DHT22;12556;55.748;13.194;2023-02-02T11:57:20;5.80;99.90
11772;DHT22;12556;55.748;13.194;2023-02-02T11:59:47;5.90;99.90
11772;DHT22;12556;55.748;13.194;2023-02-02T12:02:27;5.70;99.90
11772;DHT22;12556;55.748;13.194;2023-02-02T12:07:37;5.90;99.90
11772;DHT22;12556;55.748;13.194;2023-02-02T12:10:13;6.00;99.90
11772;DHT22;12556;55.748;13.194;2023-02-02T12:12:49;6.20;99.90
11772;DHT22;12556;55.748;13.194;2023-02-02T12:15:28;6.10;99.90
11772;DHT22;12556;55.748;13.194;2023-02-02T12:18:06;6.10;99.90
11772;DHT22;12556;55.748;13.194;2023-02-02T12:20:44;6.00;99.90
11772;DHT22;12556;55.748;13.194;2023-02-02T12:23:28;6.00;99.90
11772;DHT22;12556;55.748;13.194;2023-02-02T12:26:06;5.90;99.90
11772;DHT22;12556;55.748;13.194;2023-02-02T12:31:46;5.90;99.90
11772;DHT22;12556;55.748;13.194;2023-02-02T12:34:21;5.70;99.90
11772;DHT22;12556;55.748;13.194;2023-02-02T12:36:58;5.60;99.90
11772;DHT22;12556;55.748;13.194;2023-02-02T12:39:32;5.40;99.90
11772;DHT22;12556;55.748;13.194;2023-02-02T12:42:22;5.40;99.90
11772;DHT22;12556;55.748;13.194;2023-02-02T12:45:14;5.40;99.90
11772;DHT22;12556;55.748;13.194;2023-02-02T12:47:55;5.50;99.90
11772;DHT22;12556;55.748;13.194;2023-02-02T12:50:32;5.50;99.90
11772;DHT22;12556;55.748;13.194;2023-02-02T12:53:15;5.30;99.90
11772;DHT22;12556;55.748;13.194;2023-02-02T12:55:50;5.10;99.90
11772;DHT22;12556;55.748;13.194;2023-02-02T12:58:26;4.90;99.90
11772;DHT22;12556;55.748;13.194;2023-02-02T13:01:09;4.80;99.90
11772;DHT22;12556;55.748;13.194;2023-02-02T13:03:51;4.70;99.90
11772;DHT22;12556;55.748;13.194;2023-02-02T13:06:46;4.60;99.90
11772;DHT22;12556;55.748;13.194;2023-02-02T13:09:23;4.50;99.90
11772;DHT22;12556;55.748;13.194;2023-02-02T13:11:54;4.40;99.90
11772;DHT22;12556;55.748;13.194;2023-02-02T13:14:23;4.30;99.90
11772;DHT22;12556;55.748;13.194;2023-02-02T13:16:55;4.20;99.90
11772;DHT22;12556;55.748;13.194;2023-02-02T13:19:28;4.10;99.90
11772;DHT22;12556;55.748;13.194;2023-02-02T13:21:59;4.10;99.90
11772;DHT22;12556;55.748;13.194;2023-02-02T13:24:29;4.10;99.90
11772;DHT22;12556;55.748;13.194;2023-02-02T13:26:59;4.10;99.90
11772;DHT22;12556;55.748;13.194;2023-02-02T13:29:32;4.10;99.90
11772;DHT22;12556;55.748;13.194;2023-02-02T13:32:04;4.10;99.90
11772;DHT22;12556;55.748;13.194;2023-02-02T13:34:39;4.00;99.90
11772;DHT22;12556;55.748;13.194;2023-02-02T13:37:12;3.90;99.90
11772;DHT22;12556;55.748;13.194;2023-02-02T13:39:46;3.80;99.90
11772;DHT22;12556;55.748;13.194;2023-02-02T13:42:24;3.70;99.90
11772;DHT22;12556;55.748;13.194;2023-02-02T13:44:57;3.60;99.90
11772;DHT22;12556;55.748;13.194;2023-02-02T13:47:33;3.60;99.90
11772;DHT22;12556;55.748;13.194;2023-02-02T13:50:04;3.60;99.90
11772;DHT22;12556;55.748;13.194;2023-02-02T13:52:49;3.50;99.90
11772;DHT22;12556;55.748;13.194;2023-02-02T13:55:42;3.50;99.90
11772;DHT22;12556;55.748;13.194;2023-02-02T13:58:32;3.40;99.90
11772;DHT22;12556;55.748;13.194;2023-02-02T14:01:05;3.40;99.90
11772;DHT22;12556;55.748;13.194;2023-02-02T14:03:36;3.30;99.90
11772;DHT22;12556;55.748;13.194;2023-02-02T14:06:07;3.30;99.90
11772;DHT22;12556;55.748;13.194;2023-02-02T14:08:36;3.20;99.90
11772;DHT22;12556;55.748;13.194;2023-02-02T14:11:05;3.10;99.90
11772;DHT22;12556;55.748;13.194;2023-02-02T14:13:40;3.10;99.90
11772;DHT22;12556;55.748;13.194;2023-02-02T14:16:42;3.00;99.90
11772;DHT22;12556;55.748;13.194;2023-02-02T14:19:16;3.00;99.90
11772;DHT22;12556;55.748;13.194;2023-02-02T14:22:00;2.90;99.90
11772;DHT22;12556;55.748;13.194;2023-02-02T14:24:40;2.90;99.90
11772;DHT22;12556;55.748;13.194;2023-02-02T14:27:52;2.80;99.90
11772;DHT22;12556;55.748;13.194;2023-02-02T14:30:31;2.80;99.90
11772;DHT22;12556;55.748;13.194;2023-02-02T14:33:18;2.80;99.90
11772;DHT22;12556;55.748;13.194;2023-02-02T14:36:01;2.70;99.90
11772;DHT22;12556;55.748;13.194;2023-02-02T14:42:07;2.70;99.90
11772;DHT22;12556;55.748;13.194;2023-02-02T14:45:15;2.60;99.90
11772;DHT22;12556;55.748;13.194;2023-02-02T14:47:52;2.50;99.90
11772;DHT22;12556;55.748;13.194;2023-02-02T14:50:38;2.50;99.90
11772;DHT22;12556;55.748;13.194;2023-02-02T14:53:20;2.50;99.90
11772;DHT22;12556;55.748;13.194;2023-02-02T14:55:54;2.40;99.90
11772;DHT22;12556;55.748;13.194;2023-02-02T14:58:25;2.40;99.90
11772;DHT22;12556;55.748;13.194;2023-02-02T15:00:55;2.30;99.90
11772;DHT22;12556;55.748;13.194;2023-02-02T15:03:46;2.30;99.90
11772;DHT22;12556;55.748;13.194;2023-02-02T15:06:27;2.20;99.90
11772;DHT22;12556;55.748;13.194;2023-02-02T15:09:38;2.20;99.90
11772;DHT22;12556;55.748;13.194;2023-02-02T15:12:16;2.20;99.90
11772;DHT22;12556;55.748;13.194;2023-02-02T15:14:46;2.10;99.90
11772;DHT22;12556;55.748;13.194;2023-02-02T15:17:22;2.00;99.90
11772;DHT22;12556;55.748;13.194;2023-02-02T15:19:54;2.00;99.90
11772;DHT22;12556;55.748;13.194;2023-02-02T15:22:29;2.00;99.90
11772;DHT22;12556;55.748;13.194;2023-02-02T15:25:02;2.00;99.90
11772;DHT22;12556;55.748;13.194;2023-02-02T15:27:30;1.80;99.90
11772;DHT22;12556;55.748;13.194;2023-02-02T15:30:02;1.80;99.90
11772;DHT22;12556;55.748;13.194;2023-02-02T15:32:30;1.70;99.90
11772;DHT22;12556;55.748;13.194;2023-02-02T15:35:02;1.60;99.90
11772;DHT22;12556;55.748;13.194;2023-02-02T15:37:33;1.50;99.90
11772;DHT22;12556;55.748;13.194;2023-02-02T15:40:11;1.50;99.90
11772;DHT22;12556;55.748;13.194;2023-02-02T15:42:41;1.50;99.90
11772;DHT22;12556;55.748;13.194;2023-02-02T15:45:38;1.40;99.90
11772;DHT22;12556;55.748;13.194;2023-02-02T15:48:24;1.40;99.90
11772;DHT22;12556;55.748;13.194;2023-02-02T15:50:54;1.30;99.90
11772;DHT22;12556;55.748;13.194;2023-02-02T15:53:25;1.20;99.90
11772;DHT22;12556;55.748;13.194;2023-02-02T15:55:55;1.20;99.90
11772;DHT22;12556;55.748;13.194;2023-02-02T15:58:29;1.10;99.90
11772;DHT22;12556;55.748;13.194;2023-02-02T16:00:58;1.10;99.90
11772;DHT22;12556;55.748;13.194;2023-02-02T16:03:33;1.00;99.90
11772;DHT22;12556;55.748;13.194;2023-02-02T16:06:03;1.00;99.90
11772;DHT22;12556;55.748;13.194;2023-02-02T16:08:31;1.00;99.90